Time,TemperatureF,DewpointF,PressureIn,WindDirection,WindDirectionDegrees,WindSpeedMPH,WindSpeedGustMPH,Humidity,HourlyPrecipIn,Conditions,Clouds,dailyrainin,SolarRadiationWatts/m^2,SoftwareType,DateUTC
2013-07-28 00:12:00,61.0,52.0,-100.00,NW,316,1.0,2.0,72,0.00,,,0.52,0.000000,,2013-07-28 04:12:00,
2013-07-28 00:22:00,61.0,52.0,-100.00,NW,316,1.0,2.0,72,0.00,,,0.52,0.000000,,2013-07-28 04:22:00,
2013-07-28 00:32:00,61.0,52.0,-100.00,NW,316,1.0,2.0,72,0.00,,,0.52,0.000000,,2013-07-28 04:32:00,
2013-07-28 00:43:00,61.0,52.0,-100.00,NW,316,1.0,2.0,72,0.00,,,0.52,0.000000,,2013-07-28 04:43:00,
2013-07-28 13:13:00,71.0,53.0,-100.00,SSW,213,3.0,7.0,53,-99.99,,,-99.99,,,2013-07-28 17:13:00,
2013-07-28 13:23:00,71.0,53.0,-100.00,SSW,213,3.0,7.0,53,-99.99,,,-99.99,,,2013-07-28 17:23:00,
2013-07-28 13:33:00,71.0,53.0,-100.00,SSW,213,3.0,7.0,53,-99.99,,,-99.99,,,2013-07-28 17:33:00,
2013-07-28 13:43:00,71.0,53.0,-100.00,SSW,213,3.0,7.0,53,-99.99,,,-99.99,,,2013-07-28 17:43:00,
2013-07-28 17:13:00,74.0,52.0,-100.00,WSW,239,3.0,7.0,46,-99.99,,,0.00,559.000000,,2013-07-28 21:13:00,
2013-07-28 17:23:00,74.0,52.0,-100.00,WSW,239,3.0,7.0,46,-99.99,,,0.00,559.000000,,2013-07-28 21:23:00,
2013-07-28 17:33:00,74.0,52.0,-100.00,WSW,239,3.0,7.0,46,-99.99,,,0.00,559.000000,,2013-07-28 21:33:00,
2013-07-28 17:44:00,74.0,52.0,-100.00,WSW,239,3.0,7.0,46,-99.99,,,0.00,559.000000,,2013-07-28 21:44:00,
2013-07-28 18:12:00,72.0,52.0,-100.00,NNW,330,2.0,7.0,49,0.00,,,0.00,196.000000,,2013-07-28 22:12:00,
2013-07-28 18:22:00,72.0,52.0,-100.00,NNW,330,2.0,7.0,49,0.00,,,0.00,196.000000,,2013-07-28 22:22:00,
2013-07-28 18:32:00,72.0,52.0,-100.00,NNW,330,2.0,7.0,49,0.00,,,0.00,196.000000,,2013-07-28 22:32:00,
2013-07-28 18:43:00,72.0,52.0,-100.00,NNW,330,2.0,7.0,49,0.00,,,0.00,196.000000,,2013-07-28 22:43:00,
2013-07-28 19:12:00,72.0,51.0,-100.00,WSW,258,2.0,6.0,48,0.00,,,0.00,138.000000,,2013-07-28 23:12:00,
2013-07-28 19:22:00,72.0,51.0,-100.00,WSW,258,2.0,6.0,48,0.00,,,0.00,138.000000,,2013-07-28 23:22:00,
2013-07-28 19:32:00,72.0,51.0,-100.00,WSW,258,2.0,6.0,48,0.00,,,0.00,138.000000,,2013-07-28 23:32:00,
2013-07-28 19:43:00,72.0,51.0,-100.00,WSW,258,2.0,6.0,48,0.00,,,0.00,138.000000,,2013-07-28 23:43:00,
2013-07-28 20:12:00,68.0,56.0,-100.00,SSW,193,0.0,4.0,66,0.00,,,0.00,44.000000,,2013-07-29 00:12:00,
2013-07-28 20:22:00,68.0,56.0,-100.00,SSW,193,0.0,4.0,66,0.00,,,0.00,44.000000,,2013-07-29 00:22:00,
2013-07-28 20:32:00,68.0,56.0,-100.00,SSW,193,0.0,4.0,66,0.00,,,0.00,44.000000,,2013-07-29 00:32:00,
2013-07-28 20:43:00,68.0,56.0,-100.00,SSW,193,0.0,4.0,66,0.00,,,0.00,44.000000,,2013-07-29 00:43:00,
2013-07-28 21:14:00,65.0,59.0,-100.00,SSE,149,0.0,1.0,80,0.00,,,-99.99,22.000000,,2013-07-29 01:14:00,
2013-07-28 21:37:00,65.0,59.0,-100.00,SSE,149,0.0,1.0,80,0.00,,,-99.99,22.000000,,2013-07-29 01:37:00,
2013-07-28 21:45:00,65.0,59.0,-100.00,SSE,149,0.0,1.0,80,0.00,,,-99.99,22.000000,,2013-07-29 01:45:00,
2013-07-28 21:46:00,63.0,58.0,-100.00,SSE,155,0.0,2.0,83,0.00,,,-99.99,1.000000,,2013-07-29 01:46:00,
2013-07-28 22:14:00,63.0,58.0,-100.00,SSE,155,0.0,2.0,83,0.00,,,-99.99,1.000000,,2013-07-29 02:14:00,
2013-07-28 22:27:00,63.0,58.0,-100.00,SSE,155,0.0,2.0,83,0.00,,,-99.99,1.000000,,2013-07-29 02:27:00,
2013-07-28 22:37:00,63.0,58.0,-100.00,SSE,155,0.0,2.0,83,0.00,,,-99.99,1.000000,,2013-07-29 02:37:00,
2013-07-28 22:46:00,62.0,57.0,-100.00,ESE,116,0.0,0.0,85,0.00,,,0.00,0.000000,,2013-07-29 02:46:00,
2013-07-28 23:17:00,62.0,57.0,-100.00,ESE,116,0.0,0.0,85,0.00,,,0.00,0.000000,,2013-07-29 03:17:00,
2013-07-28 23:25:00,62.0,57.0,-100.00,ESE,116,0.0,0.0,85,0.00,,,0.00,0.000000,,2013-07-29 03:25:00,
2013-07-28 23:37:00,62.0,57.0,-100.00,ESE,116,0.0,0.0,85,0.00,,,0.00,0.000000,,2013-07-29 03:37:00,